aviador You're here:

RKSI Decoded Metar

CHAJANG NI in KOREA
Report Time2017-08-16 19:00:00
UTC Time2017-08-16 19:34:21
Flight Rules mvfr MVFR
Wind010° at 03 kt
W.Decomp.*RWY 34: 2.4 kt HW 1.8 kt RCW
RWY 33: 2.0 kt HW 2.2 kt RCW
W.Rank010° ranks 31
Current wind is below 010° avg. (4.3)
Visibility9999 m
Phenomena:Light Rain
Clouds:Few 015 Hf
Broken 025 Hf
Overcast 100 Hf
Expected CloudBase > 1,200 ft AGL from Temp-Dew spread
Ceiling2,500 ft
Temp23°C (ISA +8)
Dew Point20°C (83% RH)
QNH1006 hPa
Density Alt1,503 ft
Elevation23 ft
Report Wrong Elevation
Raw Report
METAR RKSI 161900Z 01003KT 9999 -RA FEW015 BKN025 OVC100 23/20 Q1006
NOSIG=

Extra information for RKSI:More info

Metar Taf Metar & Taf Last 4 Metars F.Rules Stats Wind Profile Meteogram Temp Stats Airport Information Weather charts Add Link Nearby VenuesMetar ALERT Operation Metar Decoded Social comments